sensor_id;sensor_type;location;lat;lon;timestamp;P1;durP1;ratioP1;P2;durP2;ratioP2
73951;SDS011;62304;47.662;18.324;2023-06-04T00:00:11;5.07;;;1.00;;
73951;SDS011;62304;47.662;18.324;2023-06-04T00:03:15;4.65;;;1.10;;
73951;SDS011;62304;47.662;18.324;2023-06-04T00:06:18;3.75;;;1.10;;
73951;SDS011;62304;47.662;18.324;2023-06-04T00:09:24;5.43;;;1.12;;
73951;SDS011;62304;47.662;18.324;2023-06-04T00:12:27;5.67;;;0.93;;
73951;SDS011;62304;47.662;18.324;2023-06-04T00:15:30;4.60;;;1.12;;
73951;SDS011;62304;47.662;18.324;2023-06-04T00:18:32;4.12;;;1.17;;
73951;SDS011;62304;47.662;18.324;2023-06-04T00:21:36;3.83;;;1.00;;
73951;SDS011;62304;47.662;18.324;2023-06-04T00:24:39;3.90;;;1.00;;
73951;SDS011;62304;47.662;18.324;2023-06-04T00:27:42;3.33;;;1.03;;
73951;SDS011;62304;47.662;18.324;2023-06-04T00:30:45;4.65;;;1.30;;
73951;SDS011;62304;47.662;18.324;2023-06-04T00:33:48;3.87;;;1.10;;
73951;SDS011;62304;47.662;18.324;2023-06-04T00:36:51;3.70;;;0.90;;
73951;SDS011;62304;47.662;18.324;2023-06-04T00:39:55;4.78;;;1.10;;
73951;SDS011;62304;47.662;18.324;2023-06-04T00:42:58;3.97;;;1.10;;
73951;SDS011;62304;47.662;18.324;2023-06-04T00:46:01;5.10;;;1.20;;
73951;SDS011;62304;47.662;18.324;2023-06-04T00:49:05;5.05;;;1.35;;
73951;SDS011;62304;47.662;18.324;2023-06-04T00:52:09;4.18;;;1.10;;
73951;SDS011;62304;47.662;18.324;2023-06-04T00:55:12;9.68;;;1.27;;
73951;SDS011;62304;47.662;18.324;2023-06-04T00:58:15;4.17;;;1.07;;
73951;SDS011;62304;47.662;18.324;2023-06-04T01:01:20;4.15;;;0.80;;
73951;SDS011;62304;47.662;18.324;2023-06-04T01:04:58;4.03;;;1.20;;
73951;SDS011;62304;47.662;18.324;2023-06-04T01:08:10;3.85;;;1.15;;
73951;SDS011;62304;47.662;18.324;2023-06-04T01:11:14;5.53;;;1.23;;
73951;SDS011;62304;47.662;18.324;2023-06-04T01:14:17;4.53;;;0.97;;
73951;SDS011;62304;47.662;18.324;2023-06-04T01:20:40;5.12;;;1.20;;
73951;SDS011;62304;47.662;18.324;2023-06-04T01:23:50;4.18;;;1.10;;
73951;SDS011;62304;47.662;18.324;2023-06-04T01:27:03;4.28;;;1.10;;
73951;SDS011;62304;47.662;18.324;2023-06-04T01:30:09;5.23;;;1.30;;
73951;SDS011;62304;47.662;18.324;2023-06-04T01:33:13;5.30;;;1.27;;
73951;SDS011;62304;47.662;18.324;2023-06-04T01:36:18;4.70;;;1.17;;
73951;SDS011;62304;47.662;18.324;2023-06-04T01:39:21;4.75;;;1.00;;
73951;SDS011;62304;47.662;18.324;2023-06-04T01:42:24;8.73;;;1.33;;
73951;SDS011;62304;47.662;18.324;2023-06-04T01:45:28;6.23;;;1.20;;
73951;SDS011;62304;47.662;18.324;2023-06-04T01:48:32;8.52;;;1.70;;
73951;SDS011;62304;47.662;18.324;2023-06-04T01:51:34;6.32;;;1.75;;
73951;SDS011;62304;47.662;18.324;2023-06-04T01:54:39;5.70;;;1.52;;
73951;SDS011;62304;47.662;18.324;2023-06-04T01:57:43;5.97;;;1.50;;
73951;SDS011;62304;47.662;18.324;2023-06-04T02:00:48;4.73;;;1.20;;
73951;SDS011;62304;47.662;18.324;2023-06-04T02:03:52;4.75;;;1.10;;
73951;SDS011;62304;47.662;18.324;2023-06-04T02:06:55;6.07;;;1.40;;
73951;SDS011;62304;47.662;18.324;2023-06-04T02:09:59;4.75;;;1.20;;
73951;SDS011;62304;47.662;18.324;2023-06-04T02:13:02;4.90;;;1.20;;
73951;SDS011;62304;47.662;18.324;2023-06-04T02:16:06;4.10;;;1.00;;
73951;SDS011;62304;47.662;18.324;2023-06-04T02:19:09;4.15;;;1.30;;
73951;SDS011;62304;47.662;18.324;2023-06-04T02:22:16;5.07;;;1.23;;
73951;SDS011;62304;47.662;18.324;2023-06-04T02:25:19;3.92;;;0.95;;
73951;SDS011;62304;47.662;18.324;2023-06-04T02:28:23;3.58;;;1.00;;
73951;SDS011;62304;47.662;18.324;2023-06-04T02:31:26;4.10;;;1.20;;
73951;SDS011;62304;47.662;18.324;2023-06-04T02:34:30;4.28;;;1.12;;
73951;SDS011;62304;47.662;18.324;2023-06-04T02:37:33;4.75;;;1.35;;
73951;SDS011;62304;47.662;18.324;2023-06-04T02:40:36;5.15;;;1.20;;
73951;SDS011;62304;47.662;18.324;2023-06-04T02:43:39;4.40;;;1.60;;
73951;SDS011;62304;47.662;18.324;2023-06-04T02:46:43;3.90;;;1.30;;
73951;SDS011;62304;47.662;18.324;2023-06-04T02:49:46;4.95;;;1.23;;
73951;SDS011;62304;47.662;18.324;2023-06-04T02:52:49;4.75;;;1.30;;
73951;SDS011;62304;47.662;18.324;2023-06-04T02:55:52;4.55;;;1.40;;
73951;SDS011;62304;47.662;18.324;2023-06-04T02:58:55;4.30;;;1.23;;
73951;SDS011;62304;47.662;18.324;2023-06-04T03:01:58;4.27;;;1.23;;
73951;SDS011;62304;47.662;18.324;2023-06-04T03:05:02;6.80;;;1.17;;
73951;SDS011;62304;47.662;18.324;2023-06-04T03:08:06;4.62;;;1.77;;
73951;SDS011;62304;47.662;18.324;2023-06-04T03:11:09;6.50;;;2.00;;
73951;SDS011;62304;47.662;18.324;2023-06-04T03:14:13;6.93;;;1.50;;
73951;SDS011;62304;47.662;18.324;2023-06-04T03:17:17;6.35;;;1.30;;
73951;SDS011;62304;47.662;18.324;2023-06-04T03:20:20;4.78;;;1.33;;
73951;SDS011;62304;47.662;18.324;2023-06-04T03:23:26;4.70;;;1.40;;
73951;SDS011;62304;47.662;18.324;2023-06-04T03:26:29;10.73;;;3.12;;
73951;SDS011;62304;47.662;18.324;2023-06-04T03:29:35;12.93;;;4.10;;
73951;SDS011;62304;47.662;18.324;2023-06-04T03:32:38;352.10;;;133.30;;
73951;SDS011;62304;47.662;18.324;2023-06-04T03:35:42;315.67;;;121.18;;
73951;SDS011;62304;47.662;18.324;2023-06-04T03:38:45;353.25;;;133.30;;
73951;SDS011;62304;47.662;18.324;2023-06-04T03:41:48;188.20;;;63.58;;
73951;SDS011;62304;47.662;18.324;2023-06-04T03:44:53;75.20;;;26.57;;
73951;SDS011;62304;47.662;18.324;2023-06-04T03:47:56;67.15;;;24.73;;
73951;SDS011;62304;47.662;18.324;2023-06-04T03:50:59;26.70;;;10.95;;
73951;SDS011;62304;47.662;18.324;2023-06-04T03:54:03;90.72;;;36.13;;
73951;SDS011;62304;47.662;18.324;2023-06-04T03:57:07;46.25;;;18.98;;
73951;SDS011;62304;47.662;18.324;2023-06-04T04:00:10;29.00;;;10.40;;
73951;SDS011;62304;47.662;18.324;2023-06-04T04:03:14;21.73;;;9.02;;
73951;SDS011;62304;47.662;18.324;2023-06-04T04:06:18;8.80;;;2.75;;
73951;SDS011;62304;47.662;18.324;2023-06-04T04:09:22;5.07;;;1.20;;
73951;SDS011;62304;47.662;18.324;2023-06-04T04:12:26;3.80;;;1.02;;
73951;SDS011;62304;47.662;18.324;2023-06-04T04:15:29;4.23;;;1.10;;
73951;SDS011;62304;47.662;18.324;2023-06-04T04:18:33;2.97;;;0.93;;
73951;SDS011;62304;47.662;18.324;2023-06-04T04:21:38;5.22;;;1.40;;
73951;SDS011;62304;47.662;18.324;2023-06-04T04:24:41;4.10;;;1.10;;
73951;SDS011;62304;47.662;18.324;2023-06-04T04:27:45;3.45;;;0.90;;
73951;SDS011;62304;47.662;18.324;2023-06-04T04:30:51;3.50;;;1.00;;
73951;SDS011;62304;47.662;18.324;2023-06-04T04:33:56;3.80;;;1.00;;
73951;SDS011;62304;47.662;18.324;2023-06-04T04:37:00;3.78;;;0.70;;
73951;SDS011;62304;47.662;18.324;2023-06-04T04:40:06;4.97;;;1.00;;
73951;SDS011;62304;47.662;18.324;2023-06-04T04:43:13;3.72;;;0.90;;
73951;SDS011;62304;47.662;18.324;2023-06-04T04:46:16;5.20;;;1.20;;
73951;SDS011;62304;47.662;18.324;2023-06-04T04:49:20;4.32;;;0.73;;
73951;SDS011;62304;47.662;18.324;2023-06-04T04:52:22;2.95;;;0.88;;
73951;SDS011;62304;47.662;18.324;2023-06-04T04:55:26;4.15;;;0.77;;
73951;SDS011;62304;47.662;18.324;2023-06-04T04:58:32;4.25;;;0.90;;
73951;SDS011;62304;47.662;18.324;2023-06-04T05:01:36;4.40;;;0.80;;
73951;SDS011;62304;47.662;18.324;2023-06-04T05:04:39;3.15;;;0.98;;
73951;SDS011;62304;47.662;18.324;2023-06-04T05:07:43;4.43;;;0.80;;
73951;SDS011;62304;47.662;18.324;2023-06-04T05:10:46;6.32;;;0.88;;
73951;SDS011;62304;47.662;18.324;2023-06-04T05:13:49;3.17;;;0.90;;
73951;SDS011;62304;47.662;18.324;2023-06-04T05:16:52;5.33;;;0.90;;
73951;SDS011;62304;47.662;18.324;2023-06-04T05:19:56;3.95;;;0.90;;
73951;SDS011;62304;47.662;18.324;2023-06-04T05:23:14;4.12;;;1.00;;
73951;SDS011;62304;47.662;18.324;2023-06-04T05:26:18;4.45;;;0.88;;
73951;SDS011;62304;47.662;18.324;2023-06-04T05:29:25;4.82;;;1.30;;
73951;SDS011;62304;47.662;18.324;2023-06-04T05:32:29;2.60;;;0.70;;
73951;SDS011;62304;47.662;18.324;2023-06-04T05:35:33;5.37;;;0.80;;
73951;SDS011;62304;47.662;18.324;2023-06-04T05:38:36;6.20;;;1.12;;
73951;SDS011;62304;47.662;18.324;2023-06-04T05:41:40;5.43;;;0.93;;
73951;SDS011;62304;47.662;18.324;2023-06-04T05:44:43;4.07;;;0.82;;
73951;SDS011;62304;47.662;18.324;2023-06-04T05:47:47;5.93;;;1.20;;
73951;SDS011;62304;47.662;18.324;2023-06-04T05:50:51;3.20;;;0.60;;
73951;SDS011;62304;47.662;18.324;2023-06-04T05:53:54;3.30;;;0.88;;
73951;SDS011;62304;47.662;18.324;2023-06-04T05:56:57;4.97;;;0.80;;
73951;SDS011;62304;47.662;18.324;2023-06-04T06:00:00;5.75;;;1.23;;
73951;SDS011;62304;47.662;18.324;2023-06-04T06:03:03;3.40;;;0.80;;
73951;SDS011;62304;47.662;18.324;2023-06-04T06:06:10;4.95;;;1.52;;
73951;SDS011;62304;47.662;18.324;2023-06-04T06:09:16;5.35;;;0.90;;
73951;SDS011;62304;47.662;18.324;2023-06-04T06:12:19;4.97;;;1.08;;
73951;SDS011;62304;47.662;18.324;2023-06-04T06:15:22;3.17;;;0.82;;
73951;SDS011;62304;47.662;18.324;2023-06-04T06:18:27;3.40;;;0.90;;
73951;SDS011;62304;47.662;18.324;2023-06-04T06:21:29;3.78;;;0.80;;
73951;SDS011;62304;47.662;18.324;2023-06-04T06:24:33;3.25;;;0.93;;
73951;SDS011;62304;47.662;18.324;2023-06-04T06:27:37;3.78;;;0.85;;
73951;SDS011;62304;47.662;18.324;2023-06-04T06:30:40;2.62;;;0.60;;
73951;SDS011;62304;47.662;18.324;2023-06-04T06:33:43;9.13;;;1.27;;
73951;SDS011;62304;47.662;18.324;2023-06-04T06:36:46;4.95;;;1.08;;
73951;SDS011;62304;47.662;18.324;2023-06-04T06:39:49;2.75;;;0.80;;
73951;SDS011;62304;47.662;18.324;2023-06-04T06:42:53;5.00;;;1.35;;
73951;SDS011;62304;47.662;18.324;2023-06-04T06:45:55;4.97;;;1.10;;
73951;SDS011;62304;47.662;18.324;2023-06-04T06:48:59;5.60;;;1.13;;
73951;SDS011;62304;47.662;18.324;2023-06-04T06:52:01;4.47;;;0.90;;
73951;SDS011;62304;47.662;18.324;2023-06-04T06:55:05;4.32;;;1.48;;
73951;SDS011;62304;47.662;18.324;2023-06-04T06:58:08;5.03;;;1.00;;
73951;SDS011;62304;47.662;18.324;2023-06-04T07:01:12;3.97;;;1.25;;
73951;SDS011;62304;47.662;18.324;2023-06-04T07:04:15;4.40;;;1.27;;
73951;SDS011;62304;47.662;18.324;2023-06-04T07:07:19;4.25;;;1.15;;
73951;SDS011;62304;47.662;18.324;2023-06-04T07:10:22;3.70;;;1.20;;
73951;SDS011;62304;47.662;18.324;2023-06-04T07:13:25;4.60;;;0.93;;
73951;SDS011;62304;47.662;18.324;2023-06-04T07:16:28;3.55;;;1.12;;
73951;SDS011;62304;47.662;18.324;2023-06-04T07:19:32;4.90;;;1.03;;
73951;SDS011;62304;47.662;18.324;2023-06-04T07:22:35;4.95;;;1.40;;
73951;SDS011;62304;47.662;18.324;2023-06-04T07:25:38;3.42;;;1.00;;
73951;SDS011;62304;47.662;18.324;2023-06-04T07:28:41;4.50;;;1.10;;
73951;SDS011;62304;47.662;18.324;2023-06-04T07:31:44;4.30;;;1.23;;
73951;SDS011;62304;47.662;18.324;2023-06-04T07:34:47;6.80;;;1.10;;
73951;SDS011;62304;47.662;18.324;2023-06-04T07:37:50;5.25;;;1.20;;
73951;SDS011;62304;47.662;18.324;2023-06-04T07:40:53;3.47;;;1.20;;
73951;SDS011;62304;47.662;18.324;2023-06-04T07:43:56;5.20;;;1.20;;
73951;SDS011;62304;47.662;18.324;2023-06-04T07:47:00;5.20;;;1.20;;
73951;SDS011;62304;47.662;18.324;2023-06-04T07:50:03;6.40;;;1.40;;
73951;SDS011;62304;47.662;18.324;2023-06-04T07:53:08;3.75;;;1.02;;
73951;SDS011;62304;47.662;18.324;2023-06-04T07:56:11;3.75;;;1.20;;
73951;SDS011;62304;47.662;18.324;2023-06-04T07:59:14;4.53;;;0.90;;
73951;SDS011;62304;47.662;18.324;2023-06-04T08:02:17;5.40;;;1.02;;
73951;SDS011;62304;47.662;18.324;2023-06-04T08:05:21;6.90;;;1.37;;
73951;SDS011;62304;47.662;18.324;2023-06-04T08:08:24;7.47;;;1.58;;
73951;SDS011;62304;47.662;18.324;2023-06-04T08:11:27;4.43;;;1.20;;
73951;SDS011;62304;47.662;18.324;2023-06-04T08:14:30;4.57;;;1.17;;
73951;SDS011;62304;47.662;18.324;2023-06-04T08:17:34;7.72;;;1.37;;
73951;SDS011;62304;47.662;18.324;2023-06-04T08:20:37;4.60;;;1.17;;
73951;SDS011;62304;47.662;18.324;2023-06-04T08:23:40;4.53;;;1.40;;
73951;SDS011;62304;47.662;18.324;2023-06-04T08:26:43;4.95;;;1.33;;
73951;SDS011;62304;47.662;18.324;2023-06-04T08:29:46;8.85;;;1.48;;
73951;SDS011;62304;47.662;18.324;2023-06-04T08:32:50;4.37;;;1.73;;
73951;SDS011;62304;47.662;18.324;2023-06-04T08:35:53;5.27;;;1.50;;
73951;SDS011;62304;47.662;18.324;2023-06-04T08:38:56;6.78;;;1.90;;
73951;SDS011;62304;47.662;18.324;2023-06-04T08:42:00;5.10;;;1.50;;
73951;SDS011;62304;47.662;18.324;2023-06-04T08:45:08;3.78;;;1.27;;
73951;SDS011;62304;47.662;18.324;2023-06-04T08:48:14;5.07;;;1.40;;
73951;SDS011;62304;47.662;18.324;2023-06-04T08:51:19;5.60;;;1.30;;
73951;SDS011;62304;47.662;18.324;2023-06-04T08:54:22;4.07;;;1.20;;
73951;SDS011;62304;47.662;18.324;2023-06-04T08:57:27;4.03;;;1.10;;
73951;SDS011;62304;47.662;18.324;2023-06-04T09:00:33;4.62;;;1.35;;
73951;SDS011;62304;47.662;18.324;2023-06-04T09:03:36;6.20;;;1.00;;
73951;SDS011;62304;47.662;18.324;2023-06-04T09:06:40;5.17;;;1.17;;
73951;SDS011;62304;47.662;18.324;2023-06-04T09:09:45;4.55;;;1.37;;
73951;SDS011;62304;47.662;18.324;2023-06-04T09:13:05;4.18;;;1.30;;
73951;SDS011;62304;47.662;18.324;2023-06-04T09:16:10;3.80;;;1.08;;
73951;SDS011;62304;47.662;18.324;2023-06-04T09:19:14;4.90;;;1.30;;
73951;SDS011;62304;47.662;18.324;2023-06-04T09:22:18;4.77;;;1.30;;
73951;SDS011;62304;47.662;18.324;2023-06-04T09:25:23;5.50;;;1.50;;
73951;SDS011;62304;47.662;18.324;2023-06-04T09:28:30;4.72;;;1.25;;
73951;SDS011;62304;47.662;18.324;2023-06-04T09:31:34;4.07;;;1.35;;
73951;SDS011;62304;47.662;18.324;2023-06-04T09:34:42;5.00;;;1.20;;
73951;SDS011;62304;47.662;18.324;2023-06-04T09:37:51;5.70;;;1.17;;
73951;SDS011;62304;47.662;18.324;2023-06-04T09:40:56;6.35;;;1.50;;
73951;SDS011;62304;47.662;18.324;2023-06-04T09:44:02;4.30;;;1.27;;
73951;SDS011;62304;47.662;18.324;2023-06-04T09:47:06;6.55;;;1.25;;
73951;SDS011;62304;47.662;18.324;2023-06-04T09:50:10;4.57;;;1.55;;
73951;SDS011;62304;47.662;18.324;2023-06-04T09:56:18;3.92;;;1.45;;
73951;SDS011;62304;47.662;18.324;2023-06-04T09:59:21;6.55;;;1.98;;
73951;SDS011;62304;47.662;18.324;2023-06-04T10:02:24;5.55;;;1.60;;
73951;SDS011;62304;47.662;18.324;2023-06-04T10:05:32;5.03;;;1.80;;
73951;SDS011;62304;47.662;18.324;2023-06-04T10:08:37;6.90;;;1.93;;
73951;SDS011;62304;47.662;18.324;2023-06-04T10:11:50;5.03;;;1.73;;
73951;SDS011;62304;47.662;18.324;2023-06-04T10:15:02;4.60;;;1.73;;
73951;SDS011;62304;47.662;18.324;2023-06-04T10:18:15;4.35;;;1.77;;
73951;SDS011;62304;47.662;18.324;2023-06-04T10:21:18;3.97;;;1.92;;
73951;SDS011;62304;47.662;18.324;2023-06-04T10:24:22;5.37;;;1.60;;
73951;SDS011;62304;47.662;18.324;2023-06-04T10:27:27;5.07;;;1.98;;
73951;SDS011;62304;47.662;18.324;2023-06-04T10:30:30;4.43;;;2.00;;
73951;SDS011;62304;47.662;18.324;2023-06-04T10:33:34;5.72;;;1.80;;
73951;SDS011;62304;47.662;18.324;2023-06-04T10:36:43;3.87;;;1.58;;
73951;SDS011;62304;47.662;18.324;2023-06-04T10:39:51;6.27;;;1.90;;
73951;SDS011;62304;47.662;18.324;2023-06-04T10:42:56;6.07;;;1.48;;
73951;SDS011;62304;47.662;18.324;2023-06-04T10:46:10;4.82;;;2.05;;
73951;SDS011;62304;47.662;18.324;2023-06-04T10:49:25;5.40;;;2.20;;
73951;SDS011;62304;47.662;18.324;2023-06-04T10:52:32;6.03;;;2.47;;
73951;SDS011;62304;47.662;18.324;2023-06-04T10:55:42;5.77;;;2.70;;
73951;SDS011;62304;47.662;18.324;2023-06-04T10:58:46;5.03;;;2.40;;
73951;SDS011;62304;47.662;18.324;2023-06-04T11:01:49;5.00;;;2.40;;
73951;SDS011;62304;47.662;18.324;2023-06-04T11:05:02;8.00;;;2.90;;
73951;SDS011;62304;47.662;18.324;2023-06-04T11:08:10;6.37;;;2.90;;
73951;SDS011;62304;47.662;18.324;2023-06-04T11:11:15;5.87;;;2.67;;
73951;SDS011;62304;47.662;18.324;2023-06-04T11:14:18;4.90;;;2.60;;
73951;SDS011;62304;47.662;18.324;2023-06-04T11:17:22;6.53;;;2.65;;
73951;SDS011;62304;47.662;18.324;2023-06-04T11:20:26;6.03;;;2.72;;
73951;SDS011;62304;47.662;18.324;2023-06-04T11:23:29;6.32;;;2.37;;
73951;SDS011;62304;47.662;18.324;2023-06-04T11:26:32;5.17;;;2.20;;
73951;SDS011;62304;47.662;18.324;2023-06-04T11:29:39;5.50;;;2.33;;
73951;SDS011;62304;47.662;18.324;2023-06-04T11:32:42;5.53;;;2.42;;
73951;SDS011;62304;47.662;18.324;2023-06-04T11:35:44;6.28;;;2.40;;
73951;SDS011;62304;47.662;18.324;2023-06-04T11:38:58;5.72;;;2.22;;
73951;SDS011;62304;47.662;18.324;2023-06-04T11:42:04;6.50;;;2.53;;
73951;SDS011;62304;47.662;18.324;2023-06-04T11:45:16;6.40;;;2.70;;
73951;SDS011;62304;47.662;18.324;2023-06-04T11:48:20;6.00;;;2.70;;
73951;SDS011;62304;47.662;18.324;2023-06-04T11:51:24;5.90;;;2.70;;
73951;SDS011;62304;47.662;18.324;2023-06-04T11:54:27;5.03;;;2.37;;
73951;SDS011;62304;47.662;18.324;2023-06-04T11:57:30;7.83;;;3.30;;
73951;SDS011;62304;47.662;18.324;2023-06-04T12:00:33;9.57;;;3.20;;
73951;SDS011;62304;47.662;18.324;2023-06-04T12:03:38;9.07;;;3.37;;
73951;SDS011;62304;47.662;18.324;2023-06-04T12:06:54;9.00;;;3.17;;
73951;SDS011;62304;47.662;18.324;2023-06-04T12:10:06;5.40;;;2.58;;
73951;SDS011;62304;47.662;18.324;2023-06-04T12:13:16;5.43;;;2.70;;
73951;SDS011;62304;47.662;18.324;2023-06-04T12:16:19;8.18;;;3.15;;
73951;SDS011;62304;47.662;18.324;2023-06-04T12:19:23;10.40;;;3.53;;
73951;SDS011;62304;47.662;18.324;2023-06-04T12:22:26;10.18;;;3.50;;
73951;SDS011;62304;47.662;18.324;2023-06-04T12:25:29;8.18;;;3.55;;
73951;SDS011;62304;47.662;18.324;2023-06-04T12:28:34;8.60;;;3.37;;
73951;SDS011;62304;47.662;18.324;2023-06-04T12:31:38;6.18;;;3.45;;
73951;SDS011;62304;47.662;18.324;2023-06-04T12:34:46;9.27;;;3.72;;
73951;SDS011;62304;47.662;18.324;2023-06-04T12:37:50;8.88;;;3.10;;
73951;SDS011;62304;47.662;18.324;2023-06-04T12:40:53;6.40;;;3.50;;
73951;SDS011;62304;47.662;18.324;2023-06-04T12:43:56;6.70;;;3.30;;
73951;SDS011;62304;47.662;18.324;2023-06-04T12:47:00;7.65;;;3.05;;
73951;SDS011;62304;47.662;18.324;2023-06-04T12:50:03;7.65;;;3.50;;
73951;SDS011;62304;47.662;18.324;2023-06-04T12:53:06;7.07;;;3.22;;
73951;SDS011;62304;47.662;18.324;2023-06-04T12:56:09;7.90;;;3.53;;
73951;SDS011;62304;47.662;18.324;2023-06-04T12:59:13;7.47;;;3.00;;
73951;SDS011;62304;47.662;18.324;2023-06-04T13:02:15;8.68;;;3.60;;
73951;SDS011;62304;47.662;18.324;2023-06-04T13:05:19;9.55;;;4.10;;
73951;SDS011;62304;47.662;18.324;2023-06-04T13:08:24;7.53;;;3.10;;
73951;SDS011;62304;47.662;18.324;2023-06-04T13:11:28;7.93;;;3.42;;
73951;SDS011;62304;47.662;18.324;2023-06-04T13:14:31;8.80;;;3.80;;
73951;SDS011;62304;47.662;18.324;2023-06-04T13:17:35;8.80;;;3.80;;
73951;SDS011;62304;47.662;18.324;2023-06-04T13:20:41;9.20;;;4.30;;
73951;SDS011;62304;47.662;18.324;2023-06-04T13:23:45;10.10;;;4.28;;
73951;SDS011;62304;47.662;18.324;2023-06-04T13:26:52;9.27;;;4.28;;
73951;SDS011;62304;47.662;18.324;2023-06-04T13:29:55;9.50;;;4.63;;
73951;SDS011;62304;47.662;18.324;2023-06-04T13:32:58;8.20;;;4.20;;
73951;SDS011;62304;47.662;18.324;2023-06-04T13:36:02;7.12;;;4.15;;
73951;SDS011;62304;47.662;18.324;2023-06-04T13:39:06;9.65;;;4.43;;
73951;SDS011;62304;47.662;18.324;2023-06-04T13:42:10;8.85;;;4.60;;
73951;SDS011;62304;47.662;18.324;2023-06-04T13:45:13;9.50;;;4.93;;
73951;SDS011;62304;47.662;18.324;2023-06-04T13:48:16;8.07;;;4.57;;
73951;SDS011;62304;47.662;18.324;2023-06-04T13:51:19;9.10;;;5.45;;
73951;SDS011;62304;47.662;18.324;2023-06-04T13:54:22;10.23;;;4.85;;
73951;SDS011;62304;47.662;18.324;2023-06-04T13:57:25;9.25;;;5.03;;
73951;SDS011;62304;47.662;18.324;2023-06-04T14:00:30;9.00;;;4.90;;
73951;SDS011;62304;47.662;18.324;2023-06-04T14:03:37;9.43;;;5.60;;
73951;SDS011;62304;47.662;18.324;2023-06-04T14:06:40;10.98;;;5.55;;
73951;SDS011;62304;47.662;18.324;2023-06-04T14:09:43;12.65;;;6.35;;
73951;SDS011;62304;47.662;18.324;2023-06-04T14:12:46;16.95;;;9.00;;
73951;SDS011;62304;47.662;18.324;2023-06-04T14:15:49;13.97;;;7.37;;
73951;SDS011;62304;47.662;18.324;2023-06-04T14:18:53;15.18;;;7.55;;
73951;SDS011;62304;47.662;18.324;2023-06-04T14:21:56;19.30;;;9.75;;
73951;SDS011;62304;47.662;18.324;2023-06-04T14:24:59;15.27;;;7.40;;
73951;SDS011;62304;47.662;18.324;2023-06-04T14:28:04;9.43;;;5.70;;
73951;SDS011;62304;47.662;18.324;2023-06-04T14:31:06;10.37;;;4.93;;
73951;SDS011;62304;47.662;18.324;2023-06-04T14:34:10;8.68;;;4.87;;
73951;SDS011;62304;47.662;18.324;2023-06-04T14:37:13;10.15;;;6.10;;
73951;SDS011;62304;47.662;18.324;2023-06-04T14:40:16;10.32;;;5.20;;
73951;SDS011;62304;47.662;18.324;2023-06-04T14:43:19;10.10;;;5.70;;
73951;SDS011;62304;47.662;18.324;2023-06-04T14:46:22;9.47;;;5.40;;
73951;SDS011;62304;47.662;18.324;2023-06-04T14:49:26;8.75;;;5.37;;
73951;SDS011;62304;47.662;18.324;2023-06-04T14:52:30;8.38;;;5.72;;
73951;SDS011;62304;47.662;18.324;2023-06-04T14:55:33;9.45;;;6.10;;
73951;SDS011;62304;47.662;18.324;2023-06-04T14:58:37;9.20;;;5.15;;
73951;SDS011;62304;47.662;18.324;2023-06-04T15:01:41;8.20;;;4.93;;
73951;SDS011;62304;47.662;18.324;2023-06-04T15:04:45;8.90;;;5.00;;
73951;SDS011;62304;47.662;18.324;2023-06-04T15:07:48;11.45;;;5.85;;
73951;SDS011;62304;47.662;18.324;2023-06-04T15:10:52;10.10;;;5.53;;
73951;SDS011;62304;47.662;18.324;2023-06-04T15:13:54;13.15;;;6.78;;
73951;SDS011;62304;47.662;18.324;2023-06-04T15:16:58;11.80;;;6.30;;
73951;SDS011;62304;47.662;18.324;2023-06-04T15:20:01;14.10;;;6.53;;
73951;SDS011;62304;47.662;18.324;2023-06-04T15:23:08;8.18;;;5.45;;
73951;SDS011;62304;47.662;18.324;2023-06-04T15:26:11;10.38;;;5.57;;
73951;SDS011;62304;47.662;18.324;2023-06-04T15:29:14;10.07;;;6.70;;
73951;SDS011;62304;47.662;18.324;2023-06-04T15:32:18;8.37;;;4.77;;
73951;SDS011;62304;47.662;18.324;2023-06-04T15:35:22;14.13;;;5.50;;
73951;SDS011;62304;47.662;18.324;2023-06-04T15:38:25;8.63;;;4.65;;
73951;SDS011;62304;47.662;18.324;2023-06-04T15:41:28;9.20;;;4.82;;
73951;SDS011;62304;47.662;18.324;2023-06-04T15:44:31;13.38;;;5.60;;
73951;SDS011;62304;47.662;18.324;2023-06-04T15:47:34;10.87;;;5.40;;
73951;SDS011;62304;47.662;18.324;2023-06-04T15:50:37;9.13;;;5.55;;
73951;SDS011;62304;47.662;18.324;2023-06-04T15:53:40;8.82;;;5.43;;
73951;SDS011;62304;47.662;18.324;2023-06-04T15:56:43;7.82;;;4.43;;
73951;SDS011;62304;47.662;18.324;2023-06-04T15:59:46;8.50;;;5.05;;
73951;SDS011;62304;47.662;18.324;2023-06-04T16:02:49;9.90;;;4.90;;
73951;SDS011;62304;47.662;18.324;2023-06-04T16:05:52;9.38;;;4.35;;
73951;SDS011;62304;47.662;18.324;2023-06-04T16:08:55;9.23;;;4.50;;
73951;SDS011;62304;47.662;18.324;2023-06-04T16:11:58;7.47;;;4.62;;
73951;SDS011;62304;47.662;18.324;2023-06-04T16:15:01;8.93;;;4.95;;
73951;SDS011;62304;47.662;18.324;2023-06-04T16:18:04;10.83;;;4.73;;
73951;SDS011;62304;47.662;18.324;2023-06-04T16:21:07;10.98;;;4.60;;
73951;SDS011;62304;47.662;18.324;2023-06-04T16:24:10;9.20;;;4.80;;
73951;SDS011;62304;47.662;18.324;2023-06-04T16:27:13;10.52;;;4.80;;
73951;SDS011;62304;47.662;18.324;2023-06-04T16:30:16;6.72;;;3.95;;
73951;SDS011;62304;47.662;18.324;2023-06-04T16:33:19;7.63;;;4.30;;
73951;SDS011;62304;47.662;18.324;2023-06-04T16:36:22;8.40;;;4.55;;
73951;SDS011;62304;47.662;18.324;2023-06-04T16:39:25;9.18;;;4.30;;
73951;SDS011;62304;47.662;18.324;2023-06-04T16:42:28;11.88;;;5.50;;
73951;SDS011;62304;47.662;18.324;2023-06-04T16:45:31;8.27;;;4.70;;
73951;SDS011;62304;47.662;18.324;2023-06-04T16:48:34;7.47;;;4.40;;
73951;SDS011;62304;47.662;18.324;2023-06-04T16:51:40;6.97;;;4.15;;
73951;SDS011;62304;47.662;18.324;2023-06-04T16:54:44;7.50;;;3.40;;
73951;SDS011;62304;47.662;18.324;2023-06-04T16:57:48;7.25;;;2.75;;
73951;SDS011;62304;47.662;18.324;2023-06-04T17:00:51;7.60;;;2.78;;
73951;SDS011;62304;47.662;18.324;2023-06-04T17:03:54;6.27;;;2.40;;
73951;SDS011;62304;47.662;18.324;2023-06-04T17:06:57;8.80;;;3.10;;
73951;SDS011;62304;47.662;18.324;2023-06-04T17:10:00;6.30;;;2.62;;
73951;SDS011;62304;47.662;18.324;2023-06-04T17:13:03;12.00;;;2.45;;
73951;SDS011;62304;47.662;18.324;2023-06-04T17:16:06;5.97;;;2.30;;
73951;SDS011;62304;47.662;18.324;2023-06-04T17:19:09;6.60;;;2.17;;
73951;SDS011;62304;47.662;18.324;2023-06-04T17:22:13;6.32;;;2.35;;
73951;SDS011;62304;47.662;18.324;2023-06-04T17:25:16;5.87;;;2.20;;
73951;SDS011;62304;47.662;18.324;2023-06-04T17:28:19;5.53;;;2.00;;
73951;SDS011;62304;47.662;18.324;2023-06-04T17:31:23;6.85;;;2.62;;
73951;SDS011;62304;47.662;18.324;2023-06-04T17:34:26;6.97;;;2.53;;
73951;SDS011;62304;47.662;18.324;2023-06-04T17:37:29;7.05;;;2.20;;
73951;SDS011;62304;47.662;18.324;2023-06-04T17:40:32;7.05;;;2.20;;
73951;SDS011;62304;47.662;18.324;2023-06-04T17:43:35;6.80;;;2.30;;
73951;SDS011;62304;47.662;18.324;2023-06-04T17:46:38;5.55;;;1.83;;
73951;SDS011;62304;47.662;18.324;2023-06-04T17:49:41;6.83;;;2.40;;
73951;SDS011;62304;47.662;18.324;2023-06-04T17:52:44;7.72;;;3.42;;
73951;SDS011;62304;47.662;18.324;2023-06-04T17:55:49;5.22;;;2.10;;
73951;SDS011;62304;47.662;18.324;2023-06-04T17:58:53;5.05;;;2.10;;
73951;SDS011;62304;47.662;18.324;2023-06-04T18:01:57;4.60;;;1.80;;
73951;SDS011;62304;47.662;18.324;2023-06-04T18:05:00;4.67;;;1.80;;
73951;SDS011;62304;47.662;18.324;2023-06-04T18:08:03;8.25;;;2.00;;
73951;SDS011;62304;47.662;18.324;2023-06-04T18:11:07;5.82;;;1.80;;
73951;SDS011;62304;47.662;18.324;2023-06-04T18:14:10;7.87;;;1.48;;
73951;SDS011;62304;47.662;18.324;2023-06-04T18:17:17;6.10;;;1.98;;